Time;durP1;ratioP1;P1;durP2;ratioP2;P2;SDS_P1;SDS_P2;PMS_P1;PMS_P2;Temp;Humidity;BMP_temperature;BMP_pressure;BME280_temperature;BME280_humidity;BME280_pressure;Samples;Min_cycle;Max_cycle;Signal;HPM_P1;HPM_P2
2023/01/15 00:01:46;;;;;;;5.60;1.47;;;;;;;;;;5114030;28;20193;-83
2023/01/15 00:04:13;;;;;;;6.37;1.30;;;;;;;;;;5114175;28;20209;-83
2023/01/15 00:06:42;;;;;;;6.80;1.67;;;;;;;;;;5113888;28;20604;-84
2023/01/15 00:09:14;;;;;;;4.50;1.10;;;;;;;;;;5113708;28;20550;-84
2023/01/15 00:11:42;;;;;;;5.33;1.20;;;;;;;;;;5113592;28;20202;-84
2023/01/15 00:14:09;;;;;;;7.47;1.10;;;;;;;;;;5113667;28;20229;-83
2023/01/15 00:16:39;;;;;;;4.47;1.40;;;;;;;;;;5113819;28;20198;-84
2023/01/15 00:19:09;;;;;;;4.93;1.10;;;;;;;;;;5113771;28;20641;-83
2023/01/15 00:21:36;;;;;;;8.03;1.43;;;;;;;;;;5113756;28;20301;-84
2023/01/15 00:29:35;;;;;;;5.97;1.23;;;;;;;;;;5113667;28;20205;-83
2023/01/15 00:32:03;;;;;;;5.57;1.20;;;;;;;;;;5113201;28;20262;-84
2023/01/15 00:34:30;;;;;;;5.57;1.13;;;;;;;;;;5113370;28;20205;-83
2023/01/15 00:36:57;;;;;;;5.37;1.20;;;;;;;;;;5113244;28;20216;-83
2023/01/15 00:39:25;;;;;;;5.97;1.77;;;;;;;;;;5112416;28;20228;-84
2023/01/15 00:41:54;;;;;;;7.53;1.20;;;;;;;;;;5113639;28;20201;-83
2023/01/15 00:44:22;;;;;;;6.03;1.00;;;;;;;;;;5113398;28;20201;-83
2023/01/15 00:46:49;;;;;;;6.13;1.37;;;;;;;;;;5113398;28;20221;-84
2023/01/15 00:49:16;;;;;;;7.60;1.10;;;;;;;;;;5112724;28;20287;-84
2023/01/15 00:51:43;;;;;;;5.47;1.00;;;;;;;;;;5113264;28;20221;-84
2023/01/15 00:54:11;;;;;;;4.60;1.10;;;;;;;;;;5112939;28;20229;-83
2023/01/15 00:56:38;;;;;;;5.53;1.23;;;;;;;;;;5113053;28;20620;-85
2023/01/15 00:59:07;;;;;;;8.17;1.30;;;;;;;;;;5112427;28;20190;-83
2023/01/15 01:01:34;;;;;;;6.77;1.40;;;;;;;;;;5112414;28;20666;-84
2023/01/15 01:04:02;;;;;;;4.33;1.40;;;;;;;;;;5112009;28;20201;-82
2023/01/15 01:06:29;;;;;;;5.83;1.30;;;;;;;;;;5112828;28;20194;-83
2023/01/15 01:08:57;;;;;;;5.20;1.30;;;;;;;;;;5112136;28;20582;-83
2023/01/15 01:11:25;;;;;;;4.43;1.20;;;;;;;;;;5112544;28;20207;-83
2023/01/15 01:13:53;;;;;;;8.53;1.50;;;;;;;;;;5112124;28;20255;-84
2023/01/15 01:16:26;;;;;;;5.63;1.10;;;;;;;;;;5112958;28;20251;-83
2023/01/15 01:18:54;;;;;;;6.57;1.20;;;;;;;;;;5112612;28;20262;-83
2023/01/15 01:21:21;;;;;;;5.10;1.00;;;;;;;;;;5112086;28;20198;-84
2023/01/15 01:23:48;;;;;;;8.80;1.37;;;;;;;;;;5111051;28;20243;-83
2023/01/15 01:26:16;;;;;;;6.43;1.33;;;;;;;;;;5112273;28;20205;-83
2023/01/15 01:28:43;;;;;;;7.37;1.50;;;;;;;;;;5112499;28;20252;-83
2023/01/15 01:31:10;;;;;;;6.40;2.03;;;;;;;;;;5112228;28;20190;-83
2023/01/15 01:33:39;;;;;;;7.87;1.80;;;;;;;;;;5112048;28;20249;-84
2023/01/15 01:36:06;;;;;;;6.83;1.43;;;;;;;;;;5112016;28;20321;-83
2023/01/15 01:38:34;;;;;;;6.27;1.20;;;;;;;;;;5111863;28;20201;-84
2023/01/15 01:41:01;;;;;;;4.40;1.30;;;;;;;;;;5112286;28;20251;-83
2023/01/15 01:43:29;;;;;;;6.70;1.23;;;;;;;;;;5111965;28;20206;-84
2023/01/15 01:45:57;;;;;;;5.77;1.13;;;;;;;;;;5112388;28;21324;-84
2023/01/15 01:48:26;;;;;;;5.07;1.10;;;;;;;;;;5111975;28;20649;-84
2023/01/15 01:50:55;;;;;;;7.27;1.47;;;;;;;;;;5111945;28;20540;-84
2023/01/15 01:53:23;;;;;;;5.50;1.23;;;;;;;;;;5111325;28;20244;-83
2023/01/15 01:55:53;;;;;;;6.10;1.30;;;;;;;;;;5112292;28;20206;-84
2023/01/15 01:58:21;;;;;;;3.97;1.20;;;;;;;;;;5111714;28;20624;-83
2023/01/15 02:00:49;;;;;;;6.23;1.50;;;;;;;;;;5112146;28;20262;-83
2023/01/15 02:03:17;;;;;;;4.23;1.30;;;;;;;;;;5111993;28;20230;-84
2023/01/15 02:05:46;;;;;;;6.70;1.07;;;;;;;;;;5112060;28;20258;-83
2023/01/15 02:08:15;;;;;;;5.53;0.87;;;;;;;;;;5111671;28;20246;-84
2023/01/15 02:10:42;;;;;;;4.87;1.20;;;;;;;;;;5112361;28;20262;-84
2023/01/15 02:13:14;;;;;;;4.10;0.90;;;;;;;;;;5111698;28;20217;-82
2023/01/15 02:15:44;;;;;;;6.20;1.03;;;;;;;;;;5111481;28;20205;-84
2023/01/15 02:18:17;;;;;;;6.73;1.30;;;;;;;;;;5111957;28;20205;-84
2023/01/15 02:20:47;;;;;;;8.27;1.27;;;;;;;;;;5111130;28;20544;-84
2023/01/15 02:23:28;;;;;;;6.50;1.10;;;;;;;;;;5111665;28;20897;-84
2023/01/15 02:26:03;;;;;;;5.37;0.90;;;;;;;;;;5111840;28;20204;-85
2023/01/15 02:28:34;;;;;;;4.90;1.10;;;;;;;;;;5111368;28;20205;-85
2023/01/15 02:31:05;;;;;;;6.73;1.10;;;;;;;;;;5111275;28;20202;-84
2023/01/15 02:33:36;;;;;;;4.87;0.90;;;;;;;;;;5112144;28;20794;-84
2023/01/15 02:36:05;;;;;;;6.67;1.00;;;;;;;;;;5115326;28;20235;-84
2023/01/15 02:38:34;;;;;;;3.93;1.10;;;;;;;;;;5115240;28;20204;-83
2023/01/15 02:41:03;;;;;;;4.63;0.97;;;;;;;;;;5115200;28;20789;-83
2023/01/15 02:43:35;;;;;;;6.13;0.90;;;;;;;;;;5115754;28;20209;-83
2023/01/15 02:46:03;;;;;;;5.33;1.00;;;;;;;;;;5115346;28;20607;-83
2023/01/15 02:48:33;;;;;;;4.77;1.00;;;;;;;;;;5115358;28;20229;-83
2023/01/15 02:51:03;;;;;;;4.93;1.23;;;;;;;;;;5115025;28;20201;-83
2023/01/15 02:53:31;;;;;;;5.37;0.80;;;;;;;;;;5115285;28;20225;-83
2023/01/15 02:56:00;;;;;;;4.27;0.93;;;;;;;;;;5115004;28;20254;-83
2023/01/15 02:58:31;;;;;;;5.00;1.20;;;;;;;;;;5115674;28;20205;-83
2023/01/15 03:01:02;;;;;;;4.30;1.00;;;;;;;;;;5114770;28;20284;-83
2023/01/15 03:03:36;;;;;;;7.20;1.23;;;;;;;;;;5114913;28;20239;-84
2023/01/15 03:06:06;;;;;;;4.70;0.80;;;;;;;;;;5114694;28;20711;-82
2023/01/15 03:08:33;;;;;;;7.70;0.87;;;;;;;;;;5115239;28;20201;-83
2023/01/15 03:11:04;;;;;;;7.37;1.30;;;;;;;;;;5115382;28;20198;-83
2023/01/15 03:13:35;;;;;;;4.23;0.90;;;;;;;;;;5114668;28;20775;-83
2023/01/15 03:18:53;;;;;;;4.47;0.93;;;;;;;;;;5114357;28;20200;-83
2023/01/15 03:21:23;;;;;;;4.67;0.77;;;;;;;;;;5114824;28;20219;-84
2023/01/15 03:23:52;;;;;;;6.00;1.13;;;;;;;;;;5114511;28;20194;-83
2023/01/15 03:26:19;;;;;;;4.27;0.80;;;;;;;;;;5114881;28;20650;-84
2023/01/15 03:28:47;;;;;;;4.83;0.90;;;;;;;;;;5114273;28;20237;-83
2023/01/15 03:31:16;;;;;;;4.97;0.83;;;;;;;;;;5114438;28;20743;-84
2023/01/15 03:33:44;;;;;;;7.73;1.20;;;;;;;;;;5113827;28;20749;-83
2023/01/15 03:36:11;;;;;;;4.27;0.77;;;;;;;;;;5114825;28;20190;-84
2023/01/15 03:38:40;;;;;;;4.47;1.00;;;;;;;;;;5114911;28;20205;-83
2023/01/15 03:41:14;;;;;;;5.77;0.90;;;;;;;;;;5114237;28;20569;-84
2023/01/15 03:43:47;;;;;;;7.10;1.17;;;;;;;;;;5104217;28;20217;-83
2023/01/15 03:46:27;;;;;;;5.30;0.97;;;;;;;;;;5093694;28;20195;-83
2023/01/15 03:48:58;;;;;;;5.10;0.80;;;;;;;;;;5093315;28;20722;-83
2023/01/15 03:51:30;;;;;;;4.57;0.70;;;;;;;;;;5094272;28;20199;-83
2023/01/15 03:53:58;;;;;;;4.13;0.97;;;;;;;;;;5093817;28;20246;-84
2023/01/15 03:56:30;;;;;;;7.43;0.90;;;;;;;;;;5093882;28;20226;-83
2023/01/15 03:59:00;;;;;;;6.17;0.73;;;;;;;;;;5093944;28;20234;-84
2023/01/15 04:01:32;;;;;;;2.50;0.60;;;;;;;;;;5093255;28;20237;-83
2023/01/15 04:04:00;;;;;;;5.27;0.87;;;;;;;;;;5093341;28;20666;-84
2023/01/15 04:06:28;;;;;;;3.97;0.67;;;;;;;;;;5093860;28;20629;-84
2023/01/15 04:08:56;;;;;;;2.63;0.60;;;;;;;;;;5093784;28;20240;-83
2023/01/15 04:11:24;;;;;;;3.53;0.63;;;;;;;;;;5093344;28;20230;-83
2023/01/15 04:13:51;;;;;;;8.50;1.03;;;;;;;;;;5093323;28;20586;-84
2023/01/15 04:16:20;;;;;;;3.43;0.60;;;;;;;;;;5093290;28;20198;-83
2023/01/15 04:18:49;;;;;;;3.47;0.70;;;;;;;;;;5093379;28;20260;-83
2023/01/15 04:21:16;;;;;;;4.20;0.60;;;;;;;;;;5093065;28;20194;-83
2023/01/15 04:23:43;;;;;;;4.47;0.87;;;;;;;;;;5093234;28;20654;-83
2023/01/15 04:26:11;;;;;;;3.87;0.90;;;;;;;;;;5093592;28;20599;-83
2023/01/15 04:28:38;;;;;;;3.40;0.83;;;;;;;;;;5109020;28;20270;-83
2023/01/15 04:31:05;;;;;;;4.97;0.90;;;;;;;;;;5112451;28;20202;-82
2023/01/15 04:33:33;;;;;;;6.23;1.30;;;;;;;;;;5113950;28;20283;-84
2023/01/15 04:36:02;;;;;;;5.40;1.17;;;;;;;;;;5113472;28;20198;-84
2023/01/15 04:38:29;;;;;;;5.60;0.90;;;;;;;;;;5113511;28;20206;-84
2023/01/15 04:46:26;;;;;;;5.87;1.27;;;;;;;;;;5112840;28;20228;-83
2023/01/15 04:48:53;;;;;;;5.10;1.10;;;;;;;;;;5112820;28;20230;-83
2023/01/15 04:51:23;;;;;;;6.57;1.13;;;;;;;;;;5113219;28;20629;-83
2023/01/15 04:53:50;;;;;;;7.87;1.30;;;;;;;;;;5112491;28;20278;-83
2023/01/15 04:56:18;;;;;;;6.57;1.30;;;;;;;;;;5112944;28;20198;-83
2023/01/15 04:58:45;;;;;;;7.03;1.23;;;;;;;;;;5112260;28;20198;-83
2023/01/15 05:01:13;;;;;;;5.43;1.07;;;;;;;;;;5112353;28;20190;-83
2023/01/15 05:03:40;;;;;;;7.37;1.43;;;;;;;;;;5112895;28;20223;-83
2023/01/15 05:06:08;;;;;;;7.83;1.50;;;;;;;;;;5112739;28;20739;-83
2023/01/15 05:08:37;;;;;;;9.03;1.67;;;;;;;;;;5112401;28;20198;-83
2023/01/15 05:11:05;;;;;;;7.33;1.10;;;;;;;;;;5112824;28;20194;-82
2023/01/15 05:13:32;;;;;;;8.87;1.33;;;;;;;;;;5113086;28;20201;-84
2023/01/15 05:16:07;;;;;;;7.30;1.20;;;;;;;;;;5112452;28;20250;-83
2023/01/15 05:18:35;;;;;;;5.33;1.17;;;;;;;;;;5112478;28;20197;-83
2023/01/15 05:21:02;;;;;;;5.17;1.40;;;;;;;;;;5112065;28;20198;-83
2023/01/15 05:23:29;;;;;;;7.63;1.43;;;;;;;;;;5112550;28;20198;-83
2023/01/15 05:25:58;;;;;;;8.30;1.07;;;;;;;;;;5112399;28;20722;-83
2023/01/15 05:28:25;;;;;;;6.87;1.13;;;;;;;;;;5112033;28;20229;-83
2023/01/15 05:30:52;;;;;;;5.10;1.00;;;;;;;;;;5112293;28;20747;-83
2023/01/15 05:33:19;;;;;;;4.77;0.80;;;;;;;;;;5112180;28;20226;-83
2023/01/15 05:35:46;;;;;;;3.87;0.83;;;;;;;;;;5112074;28;20713;-82
2023/01/15 05:38:14;;;;;;;4.03;0.77;;;;;;;;;;5112454;28;20221;-83
2023/01/15 05:40:41;;;;;;;3.57;0.80;;;;;;;;;;5112039;28;20194;-83
2023/01/15 05:43:09;;;;;;;7.67;1.00;;;;;;;;;;5112173;28;20232;-82
2023/01/15 05:45:37;;;;;;;5.67;0.80;;;;;;;;;;5111830;28;20232;-82
2023/01/15 05:48:04;;;;;;;3.23;0.83;;;;;;;;;;5111690;28;20197;-83
2023/01/15 05:50:32;;;;;;;5.70;1.10;;;;;;;;;;5112130;28;20322;-83
2023/01/15 05:52:59;;;;;;;7.87;1.30;;;;;;;;;;5112452;28;20900;-83
2023/01/15 05:55:26;;;;;;;9.13;1.37;;;;;;;;;;5112057;28;20226;-82
2023/01/15 05:57:53;;;;;;;6.60;0.97;;;;;;;;;;5111212;28;20631;-83
2023/01/15 06:00:24;;;;;;;6.47;0.90;;;;;;;;;;5111992;28;20802;-83
2023/01/15 06:02:51;;;;;;;7.37;0.97;;;;;;;;;;5111974;28;20225;-82
2023/01/15 06:05:19;;;;;;;4.90;0.80;;;;;;;;;;5111902;28;20206;-83
2023/01/15 06:07:48;;;;;;;5.90;1.13;;;;;;;;;;5111645;28;20193;-82
2023/01/15 06:10:17;;;;;;;6.37;1.07;;;;;;;;;;5112214;28;20280;-83
2023/01/15 06:12:44;;;;;;;5.80;0.90;;;;;;;;;;5111533;28;20600;-83
2023/01/15 06:15:12;;;;;;;5.70;1.23;;;;;;;;;;5111732;28;20225;-83
2023/01/15 06:17:40;;;;;;;5.07;1.10;;;;;;;;;;5111428;28;20222;-83
2023/01/15 06:20:08;;;;;;;8.00;1.33;;;;;;;;;;5111871;28;20629;-83
2023/01/15 06:22:37;;;;;;;6.70;1.37;;;;;;;;;;5111263;28;20227;-83
2023/01/15 06:25:05;;;;;;;7.77;1.40;;;;;;;;;;5112085;28;20250;-83
2023/01/15 06:27:32;;;;;;;9.13;1.43;;;;;;;;;;5111215;28;20292;-82
2023/01/15 06:29:59;;;;;;;7.20;1.53;;;;;;;;;;5111575;28;20800;-83
2023/01/15 06:32:27;;;;;;;7.73;1.50;;;;;;;;;;5111437;28;20202;-83
2023/01/15 06:34:55;;;;;;;7.50;2.63;;;;;;;;;;5111612;28;20215;-83
2023/01/15 06:37:23;;;;;;;7.10;2.20;;;;;;;;;;5111382;28;20623;-82
2023/01/15 06:39:50;;;;;;;6.80;1.77;;;;;;;;;;5111177;28;20571;-81
2023/01/15 06:47:47;;;;;;;11.30;2.70;;;;;;;;;;5111313;28;20200;-82
2023/01/15 06:50:16;;;;;;;9.70;1.83;;;;;;;;;;5111586;28;20230;-83
2023/01/15 06:52:44;;;;;;;7.67;1.97;;;;;;;;;;5111451;28;20221;-83
2023/01/15 06:55:11;;;;;;;9.43;2.13;;;;;;;;;;5111172;28;20224;-81
2023/01/15 06:57:39;;;;;;;7.73;1.97;;;;;;;;;;5111044;28;20239;-82
2023/01/15 07:00:07;;;;;;;9.13;2.00;;;;;;;;;;5111222;28;20218;-82
2023/01/15 07:02:34;;;;;;;14.30;2.83;;;;;;;;;;5111488;28;20228;-82
2023/01/15 07:05:01;;;;;;;11.03;2.47;;;;;;;;;;5111199;28;20243;-82
2023/01/15 07:07:30;;;;;;;11.57;2.70;;;;;;;;;;5111328;28;20204;-82
2023/01/15 07:09:57;;;;;;;11.63;2.77;;;;;;;;;;5111330;28;20269;-82
2023/01/15 07:12:24;;;;;;;9.87;2.57;;;;;;;;;;5111461;28;20223;-82
2023/01/15 07:14:52;;;;;;;8.30;2.30;;;;;;;;;;5111182;28;20294;-83
2023/01/15 07:17:19;;;;;;;10.17;2.47;;;;;;;;;;5111288;28;20726;-83
2023/01/15 07:19:47;;;;;;;14.13;2.20;;;;;;;;;;5110900;28;20204;-82
2023/01/15 07:22:14;;;;;;;10.50;2.10;;;;;;;;;;5114489;28;20200;-82
2023/01/15 07:24:43;;;;;;;8.27;2.10;;;;;;;;;;5114780;28;20194;-84
2023/01/15 07:27:10;;;;;;;10.73;2.20;;;;;;;;;;5114520;28;20249;-81
2023/01/15 07:29:37;;;;;;;6.20;1.80;;;;;;;;;;5114638;28;20699;-83
2023/01/15 07:32:04;;;;;;;8.23;2.13;;;;;;;;;;5114738;28;20225;-83
2023/01/15 07:34:32;;;;;;;11.77;2.33;;;;;;;;;;5114392;28;20312;-82
2023/01/15 07:36:59;;;;;;;10.33;2.30;;;;;;;;;;5114481;28;20661;-83
2023/01/15 07:39:27;;;;;;;8.57;1.87;;;;;;;;;;5113705;28;20237;-82
2023/01/15 07:50:13;;;;;;;11.93;2.27;;;;;;;;;;5113989;28;20279;-83
2023/01/15 07:52:40;;;;;;;9.83;2.10;;;;;;;;;;5114638;28;20216;-83
2023/01/15 07:55:08;;;;;;;12.83;2.87;;;;;;;;;;5113449;28;20221;-83
2023/01/15 07:57:37;;;;;;;11.87;3.20;;;;;;;;;;5114671;28;20289;-82
2023/01/15 08:00:05;;;;;;;10.10;3.77;;;;;;;;;;5114018;28;20194;-82
2023/01/15 08:02:33;;;;;;;9.50;3.07;;;;;;;;;;5114056;28;20226;-82
2023/01/15 08:05:00;;;;;;;7.93;2.20;;;;;;;;;;5114507;28;20190;-83
2023/01/15 08:07:27;;;;;;;14.47;3.03;;;;;;;;;;5114015;28;20206;-84
2023/01/15 08:09:55;;;;;;;12.77;2.90;;;;;;;;;;5113763;28;20190;-83
2023/01/15 08:15:12;;;;;;;12.67;2.90;;;;;;;;;;5114545;28;20228;-87
2023/01/15 08:17:40;;;;;;;13.60;3.00;;;;;;;;;;5095548;28;20252;-85
2023/01/15 08:20:10;;;;;;;10.30;2.37;;;;;;;;;;5095717;28;20214;-89
2023/01/15 08:22:39;;;;;;;14.83;3.23;;;;;;;;;;5095171;28;20233;-87
2023/01/15 08:25:07;;;;;;;9.67;2.77;;;;;;;;;;5102722;28;20629;-88
2023/01/15 08:27:34;;;;;;;10.60;3.60;;;;;;;;;;5115346;28;20238;-89
2023/01/15 08:30:01;;;;;;;9.57;2.73;;;;;;;;;;5096722;28;20286;-88
2023/01/15 08:32:30;;;;;;;9.53;3.03;;;;;;;;;;5115066;28;20625;-89
2023/01/15 08:34:58;;;;;;;8.77;2.50;;;;;;;;;;5101695;28;20321;-88
2023/01/15 08:37:25;;;;;;;7.97;2.30;;;;;;;;;;5107875;28;20277;-89
2023/01/15 08:39:52;;;;;;;8.27;2.23;;;;;;;;;;5115250;28;20201;-90
2023/01/15 08:42:20;;;;;;;10.10;2.20;;;;;;;;;;5107088;28;20244;-90
2023/01/15 08:44:47;;;;;;;6.93;2.10;;;;;;;;;;5110870;28;20202;-90
2023/01/15 08:50:01;;;;;;;8.77;2.40;;;;;;;;;;5104621;28;20225;-92
2023/01/15 08:52:28;;;;;;;11.70;2.10;;;;;;;;;;5114915;28;20258;-90
2023/01/15 08:54:55;;;;;;;9.10;2.60;;;;;;;;;;5116346;28;20275;-89
2023/01/15 08:57:23;;;;;;;10.50;3.00;;;;;;;;;;5086343;28;20285;-90
2023/01/15 08:59:50;;;;;;;9.47;2.73;;;;;;;;;;5095382;28;20194;-91
2023/01/15 09:02:17;;;;;;;7.70;2.10;;;;;;;;;;5091161;28;20280;-91
2023/01/15 09:04:45;;;;;;;9.53;2.40;;;;;;;;;;5115543;28;20197;-91
2023/01/15 09:07:13;;;;;;;6.13;1.97;;;;;;;;;;5115035;28;20193;-91
2023/01/15 09:09:41;;;;;;;6.13;1.97;;;;;;;;;;5102639;28;20272;-91
2023/01/15 09:12:08;;;;;;;9.23;3.20;;;;;;;;;;5097296;28;20248;-92
2023/01/15 09:14:37;;;;;;;13.23;5.03;;;;;;;;;;5099205;28;20194;-90
2023/01/15 09:17:04;;;;;;;11.13;4.60;;;;;;;;;;5095065;28;20240;-92
2023/01/15 09:19:32;;;;;;;7.73;3.23;;;;;;;;;;5095177;28;20194;-93
2023/01/15 09:21:59;;;;;;;6.93;2.45;;;;;;;;;;5094671;28;20214;-92
2023/01/15 09:24:28;;;;;;;10.07;2.80;;;;;;;;;;5095435;28;20187;-91
2023/01/15 09:26:55;;;;;;;6.68;3.00;;;;;;;;;;5077871;28;20202;-93
2023/01/15 09:29:22;;;;;;;10.82;4.05;;;;;;;;;;5094825;28;20191;-91
2023/01/15 09:31:50;;;;;;;10.85;3.10;;;;;;;;;;5111236;28;20794;-92
2023/01/15 09:34:17;;;;;;;6.38;2.30;;;;;;;;;;5109929;28;20186;-91
2023/01/15 09:36:45;;;;;;;10.43;2.47;;;;;;;;;;5100497;28;20344;-93
2023/01/15 09:39:13;;;;;;;6.55;2.30;;;;;;;;;;5115301;28;20650;-91
2023/01/15 09:42:08;;;;;;;7.55;2.50;;;;;;;;;;5116489;28;20206;-91
2023/01/15 09:44:51;;;;;;;8.80;2.20;;;;;;;;;;5107558;28;20657;-88
2023/01/15 09:47:21;;;;;;;6.90;2.03;;;;;;;;;;5114432;28;20606;-89
2023/01/15 09:49:58;;;;;;;7.53;1.97;;;;;;;;;;5113537;28;20339;-89
2023/01/15 09:52:31;;;;;;;7.07;1.50;;;;;;;;;;5114830;28;20193;-89
2023/01/15 09:55:04;;;;;;;8.07;2.40;;;;;;;;;;5113936;28;20193;-88
2023/01/15 09:57:31;;;;;;;7.67;1.43;;;;;;;;;;5094454;28;20197;-88
2023/01/15 10:00:02;;;;;;;4.97;1.80;;;;;;;;;;5106992;28;20235;-88
2023/01/15 10:02:31;;;;;;;8.13;2.10;;;;;;;;;;5113757;28;20200;-89
2023/01/15 10:05:00;;;;;;;6.33;1.70;;;;;;;;;;5116249;27;20197;-89
2023/01/15 10:07:31;;;;;;;7.00;1.60;;;;;;;;;;5127124;27;20252;-92
2023/01/15 10:09:59;;;;;;;8.90;2.00;;;;;;;;;;5110866;28;20197;-90
2023/01/15 10:12:38;;;;;;;5.37;1.50;;;;;;;;;;5113552;28;20268;-89
2023/01/15 10:15:19;;;;;;;6.30;1.90;;;;;;;;;;5113614;28;20198;-90
2023/01/15 10:17:48;;;;;;;6.80;1.53;;;;;;;;;;5113493;28;20193;-92
2023/01/15 10:20:16;;;;;;;5.93;1.93;;;;;;;;;;5110271;28;20633;-92
2023/01/15 10:22:49;;;;;;;7.27;2.00;;;;;;;;;;5103325;28;20234;-92
2023/01/15 10:25:24;;;;;;;6.17;1.07;;;;;;;;;;5112148;28;20193;-91
2023/01/15 10:27:52;;;;;;;5.03;1.23;;;;;;;;;;5112709;28;20205;-91
2023/01/15 10:30:34;;;;;;;6.80;1.60;;;;;;;;;;5113875;28;20212;-91
2023/01/15 10:33:06;;;;;;;6.50;1.57;;;;;;;;;;5111053;28;20201;-85
2023/01/15 10:35:41;;;;;;;10.83;2.10;;;;;;;;;;5096694;28;20306;-96
2023/01/15 10:38:14;;;;;;;6.43;1.63;;;;;;;;;;5098063;28;20194;-96
2023/01/15 10:40:46;;;;;;;5.23;1.50;;;;;;;;;;5102730;28;20190;-96
2023/01/15 10:43:20;;;;;;;3.90;1.37;;;;;;;;;;5098713;28;20216;-95
2023/01/15 10:45:52;;;;;;;5.43;1.40;;;;;;;;;;5097517;28;20198;-96
2023/01/15 10:48:26;;;;;;;5.93;1.53;;;;;;;;;;5100159;28;20283;-96
2023/01/15 10:50:54;;;;;;;3.87;1.30;;;;;;;;;;5097301;28;20182;-96
2023/01/15 10:53:28;;;;;;;7.67;1.87;;;;;;;;;;5118775;28;20190;-96
2023/01/15 10:55:58;;;;;;;7.37;1.77;;;;;;;;;;5122232;28;20225;-96
2023/01/15 10:58:29;;;;;;;6.10;1.73;;;;;;;;;;5119585;28;20205;-96
2023/01/15 11:01:11;;;;;;;9.37;1.80;;;;;;;;;;5121550;28;20255;-96
2023/01/15 11:03:46;;;;;;;7.53;1.80;;;;;;;;;;5124226;28;20198;-96
2023/01/15 11:06:16;;;;;;;9.07;1.63;;;;;;;;;;5121583;28;20197;-96
2023/01/15 11:08:47;;;;;;;7.50;1.73;;;;;;;;;;5124114;28;20749;-96
2023/01/15 11:19:35;;;;;;;5.80;1.40;;;;;;;;;;5131264;28;20241;-96
2023/01/15 11:19:53;;;;;;;6.20;1.20;;;;;;;;;;5109468;28;20274;-96
2023/01/15 11:22:22;;;;;;;7.60;1.50;;;;;;;;;;5114946;28;20634;-95
2023/01/15 11:24:51;;;;;;;5.27;1.60;;;;;;;;;;5126384;28;20266;-96
2023/01/15 11:27:20;;;;;;;5.17;1.70;;;;;;;;;;5128832;28;20224;-96
2023/01/15 11:29:52;;;;;;;8.67;1.77;;;;;;;;;;5127674;28;20197;-96
2023/01/15 11:32:34;;;;;;;6.40;2.17;;;;;;;;;;5111108;28;20224;-96
2023/01/15 11:35:05;;;;;;;9.97;2.40;;;;;;;;;;5122200;28;20218;-94
2023/01/15 11:37:32;;;;;;;8.73;3.07;;;;;;;;;;5117242;28;20286;-94
2023/01/15 11:40:07;;;;;;;9.03;2.60;;;;;;;;;;5119173;28;20228;-96
2023/01/15 11:51:09;;;;;;;5.50;1.60;;;;;;;;;;5110492;28;20204;-95
2023/01/15 11:53:41;;;;;;;6.67;1.23;;;;;;;;;;5102023;28;20194;-95
2023/01/15 11:56:13;;;;;;;5.53;1.20;;;;;;;;;;5118962;28;20226;-96
2023/01/15 11:58:42;;;;;;;7.83;1.80;;;;;;;;;;5110670;28;20194;-95
2023/01/15 12:01:09;;;;;;;7.97;1.70;;;;;;;;;;5120972;28;20197;-92
2023/01/15 12:03:44;;;;;;;4.90;1.30;;;;;;;;;;5124778;28;20248;-96
2023/01/15 12:06:24;;;;;;;4.60;1.20;;;;;;;;;;5112546;28;20216;-96
2023/01/15 12:09:07;;;;;;;4.37;1.37;;;;;;;;;;5132274;27;20201;-96
2023/01/15 12:11:53;;;;;;;4.43;1.00;;;;;;;;;;5111810;28;20205;-96
2023/01/15 12:20:21;;;;;;;6.20;1.40;;;;;;;;;;5119065;28;20201;-96
2023/01/15 12:28:58;;;;;;;8.60;1.80;;;;;;;;;;5127711;27;20201;-92
2023/01/15 12:31:30;;;;;;;9.50;2.07;;;;;;;;;;5112274;28;21338;-96
2023/01/15 12:34:09;;;;;;;8.00;1.87;;;;;;;;;;5103333;28;20206;-95
2023/01/15 12:36:39;;;;;;;9.67;2.63;;;;;;;;;;5109980;28;20225;-96
2023/01/15 12:39:13;;;;;;;6.47;1.80;;;;;;;;;;5111660;28;20194;-91
2023/01/15 12:47:30;;;;;;;7.93;1.93;;;;;;;;;;5115369;28;20204;-96
2023/01/15 12:50:00;;;;;;;3.50;1.00;;;;;;;;;;5119262;28;20229;-96
2023/01/15 12:52:32;;;;;;;4.53;1.10;;;;;;;;;;5118905;28;20202;-95
2023/01/15 12:55:02;;;;;;;3.30;0.87;;;;;;;;;;5119271;27;20725;-95
2023/01/15 12:57:35;;;;;;;2.20;0.77;;;;;;;;;;5119309;28;20274;-96
2023/01/15 13:00:06;;;;;;;3.63;1.47;;;;;;;;;;5100060;28;20194;-94
2023/01/15 13:02:39;;;;;;;3.27;1.07;;;;;;;;;;5099027;28;20263;-95
2023/01/15 13:05:14;;;;;;;3.60;1.00;;;;;;;;;;5118493;28;20256;-96
2023/01/15 13:07:44;;;;;;;5.47;1.27;;;;;;;;;;5119528;28;20196;-96
2023/01/15 13:10:16;;;;;;;3.73;1.27;;;;;;;;;;5119554;28;20231;-95
2023/01/15 13:12:47;;;;;;;3.87;1.50;;;;;;;;;;5117473;28;20208;-95
2023/01/15 13:15:16;;;;;;;4.10;1.10;;;;;;;;;;5103048;28;20197;-96
2023/01/15 13:17:59;;;;;;;5.20;1.43;;;;;;;;;;5117030;28;20245;-96
2023/01/15 13:20:32;;;;;;;5.87;2.43;;;;;;;;;;5109082;28;20204;-94
2023/01/15 13:23:07;;;;;;;3.85;1.50;;;;;;;;;;5115341;28;20500;-95
2023/01/15 13:25:45;;;;;;;4.47;1.70;;;;;;;;;;5115587;28;20194;-93
2023/01/15 13:28:21;;;;;;;3.60;1.10;;;;;;;;;;5114764;28;20232;-89
2023/01/15 13:30:53;;;;;;;5.23;0.83;;;;;;;;;;5115205;28;20292;-91
2023/01/15 13:33:25;;;;;;;3.07;1.30;;;;;;;;;;5115559;28;20227;-95
2023/01/15 13:35:55;;;;;;;2.00;1.03;;;;;;;;;;5115313;28;20680;-94
2023/01/15 13:38:24;;;;;;;4.93;0.90;;;;;;;;;;5114772;28;20243;-94
2023/01/15 13:40:52;;;;;;;3.27;1.43;;;;;;;;;;5115459;28;20730;-95
2023/01/15 13:43:26;;;;;;;5.33;1.07;;;;;;;;;;5114162;28;20615;-94
2023/01/15 13:45:53;;;;;;;5.50;1.30;;;;;;;;;;5114811;28;20225;-91
2023/01/15 13:48:23;;;;;;;4.83;1.27;;;;;;;;;;5114621;28;20194;-92
2023/01/15 13:50:56;;;;;;;3.70;1.03;;;;;;;;;;5094142;28;20290;-94
2023/01/15 13:53:26;;;;;;;6.13;1.67;;;;;;;;;;5094323;28;20204;-93
2023/01/15 13:55:55;;;;;;;4.20;1.03;;;;;;;;;;5094715;28;20202;-93
2023/01/15 13:58:26;;;;;;;3.97;1.00;;;;;;;;;;5093804;28;20230;-94
2023/01/15 14:01:07;;;;;;;4.00;1.00;;;;;;;;;;5094905;28;20206;-94
2023/01/15 14:03:36;;;;;;;3.07;1.03;;;;;;;;;;5094425;28;20201;-93
2023/01/15 14:06:05;;;;;;;3.43;1.10;;;;;;;;;;5108752;28;20549;-95
2023/01/15 14:08:38;;;;;;;3.50;1.03;;;;;;;;;;5115194;28;20216;-92
2023/01/15 14:11:05;;;;;;;5.90;2.00;;;;;;;;;;5112391;28;20223;-85
2023/01/15 14:13:50;;;;;;;4.50;1.40;;;;;;;;;;5095614;28;20224;-86
2023/01/15 14:16:23;;;;;;;3.90;0.97;;;;;;;;;;5110201;28;20201;-86
2023/01/15 14:19:09;;;;;;;5.37;1.60;;;;;;;;;;5112650;28;20193;-87
2023/01/15 14:21:42;;;;;;;4.53;1.00;;;;;;;;;;5109414;28;20228;-87
2023/01/15 14:24:17;;;;;;;2.83;0.90;;;;;;;;;;5112516;28;20213;-87
2023/01/15 14:26:48;;;;;;;4.50;1.20;;;;;;;;;;5103588;28;20225;-87
2023/01/15 14:29:30;;;;;;;4.63;1.10;;;;;;;;;;5102884;28;20268;-88
2023/01/15 14:32:00;;;;;;;5.10;1.20;;;;;;;;;;5114217;28;20244;-87
2023/01/15 14:34:29;;;;;;;5.20;1.70;;;;;;;;;;5110140;28;20228;-86
2023/01/15 14:36:59;;;;;;;3.80;1.30;;;;;;;;;;5116882;28;20219;-87
2023/01/15 14:39:29;;;;;;;5.33;1.13;;;;;;;;;;5117553;28;20213;-87
2023/01/15 14:44:45;;;;;;;7.10;1.60;;;;;;;;;;5116207;28;20205;-87
2023/01/15 14:47:20;;;;;;;7.27;1.97;;;;;;;;;;5116444;28;20197;-88
2023/01/15 14:49:48;;;;;;;5.07;1.73;;;;;;;;;;5103144;28;20255;-88
2023/01/15 14:52:19;;;;;;;5.17;1.80;;;;;;;;;;5095901;28;20190;-86
2023/01/15 14:54:46;;;;;;;4.57;1.67;;;;;;;;;;5108994;28;20258;-88
2023/01/15 14:57:16;;;;;;;7.17;2.17;;;;;;;;;;5116048;28;20213;-88
2023/01/15 14:59:48;;;;;;;6.20;1.80;;;;;;;;;;5116889;28;20687;-88
2023/01/15 15:02:19;;;;;;;8.00;1.67;;;;;;;;;;5116286;28;20243;-88
2023/01/15 15:04:50;;;;;;;7.90;1.80;;;;;;;;;;5109139;28;20251;-87
2023/01/15 15:07:21;;;;;;;4.10;1.80;;;;;;;;;;5107638;28;20213;-87
2023/01/15 15:09:53;;;;;;;8.17;2.37;;;;;;;;;;5106945;28;20568;-88
2023/01/15 15:12:27;;;;;;;9.50;1.90;;;;;;;;;;5099952;28;20587;-88
2023/01/15 15:15:00;;;;;;;7.30;2.60;;;;;;;;;;5108789;28;20743;-88
2023/01/15 15:17:32;;;;;;;6.97;2.80;;;;;;;;;;5116549;28;20602;-88
2023/01/15 15:20:03;;;;;;;8.00;2.60;;;;;;;;;;5115936;28;20288;-88
2023/01/15 15:22:31;;;;;;;6.07;1.60;;;;;;;;;;5116166;28;20244;-88
2023/01/15 15:25:01;;;;;;;5.83;1.10;;;;;;;;;;5115379;28;20279;-87
2023/01/15 15:27:28;;;;;;;6.13;1.30;;;;;;;;;;5116239;28;20210;-87
2023/01/15 15:30:05;;;;;;;6.07;1.93;;;;;;;;;;5115603;28;20637;-87
2023/01/15 15:32:38;;;;;;;7.23;2.10;;;;;;;;;;5115802;28;20193;-87
2023/01/15 15:35:07;;;;;;;6.63;2.00;;;;;;;;;;5115929;28;20217;-86
2023/01/15 15:37:34;;;;;;;9.63;2.80;;;;;;;;;;5116150;28;20260;-87
2023/01/15 15:40:04;;;;;;;6.00;1.73;;;;;;;;;;5115252;28;20280;-87
2023/01/15 15:50:57;;;;;;;7.97;2.20;;;;;;;;;;5115781;28;20299;-87
2023/01/15 15:53:24;;;;;;;8.30;2.67;;;;;;;;;;5103587;28;20202;-87
2023/01/15 15:55:52;;;;;;;7.60;3.20;;;;;;;;;;5116118;28;20225;-83
2023/01/15 15:58:23;;;;;;;9.80;2.90;;;;;;;;;;5102073;28;20314;-87
2023/01/15 16:00:52;;;;;;;6.73;2.50;;;;;;;;;;5108088;28;20197;-87
2023/01/15 16:03:21;;;;;;;6.33;2.47;;;;;;;;;;5106962;28;20189;-87
2023/01/15 16:06:00;;;;;;;9.07;2.63;;;;;;;;;;5113770;28;20280;-86
2023/01/15 16:08:32;;;;;;;8.53;2.97;;;;;;;;;;5101344;28;20689;-88
2023/01/15 16:11:01;;;;;;;8.57;1.70;;;;;;;;;;5105003;28;20194;-87
2023/01/15 16:13:30;;;;;;;6.43;1.80;;;;;;;;;;5109151;28;20209;-87